Terminal Aerodrome Forecast
Issued by NWS Cleveland, OH

Home | Current Version | Previous Version | Graphics & Text | Print | Product List | Glossary Off
Versions: 1 2 3 4 5 6 7 8 9 10 11 12 13 14 15

000
FTUS41 KCLE 031133
TAFYNG
TAF
KYNG 031133Z 0312/0412 21010KT P6SM SCT080
     FM031500 27012KT P6SM BKN035
      TEMPO 0319/0323 3SM -TSRA OVC035CB
     FM032300 25005KT P6SM SCT250=

USA.gov is the U.S. government's official web portal to all federal, state and local government web resources and services.